Terminal Aerodrome Forecast
Issued by NWS

Home | Current Version | Previous Version | Text Only | Print | Product List | Glossary On
Versions: 1 2 3 4 5 6 7 8 9 10 11 12 13 14 15 16 17 18 19 20 21
092
FTUS43 KGRB 052339
TAFCWA
TAF
KCWA 052339Z 0600/0624 20003KT P6SM BKN100 BKN250
     FM060100 22005KT P6SM SCT025 OVC050
     FM060500 23005KT 6SM -SN SCT025 BKN040
     FM061000 24004KT P6SM BKN025
     FM061400 24008KT P6SM BKN020
      AMD LTD TO CLD VIS AND WND 0603/0611=

USA.gov is the U.S. government's official web portal to all federal, state and local government web resources and services.